ZBTJ/TSN METAR and TAF weather

Enter ICAO airport designator
Station Type Date Time Source
ZBTJ METAR 2020/07/05 15:30 UTC NOAA

ZBTJ 051530Z 14002MPS CAVOK 21/19 Q0997 NOSIG


Station Type Date Time Source
ZBTJ Decoded METAR 2020/07/05 15:30 UTC NOAA

Tianjin / Zhangguizhu, China (ZBTJ) 39-11N 117-21E
Jul 05, 2020 - 11:30 AM EDT / 2020.07.05 1530 UTC
Wind: from the SE (140 degrees) at 4 MPH (4 KT):0
Visibility: greater than 7 mile(s):0
Temperature: 69 F (21 C)
Dew Point: 66 F (19 C)
Relative Humidity: 88%
Pressure (altimeter): 29.44 in. Hg (0997 hPa)
ob: ZBTJ 051530Z 14002MPS CAVOK 21/19 Q0997 NOSIG
cycle: 15

Station Type Date Time Source
ZBTJ TAF 2020/07/05 12:03 UTC NOAA

TAF ZBTJ 050918Z 0512/0612 12003MPS 5000 HZ NSC TX31/0607Z TN22/0521Z
TEMPO 0512/0514 29009G17MPS TSRA SCT030CB BKN040
TEMPO 0517/0520 2000 -TSRA BR FEW030CB

Example: see airport list